• Join FlightAware (Why Join?)
  • Login
  • US Flag 
04:52PM EDT


 

Airport Tracker/Info


-or-


 

Live Flight TrackerFlight Track Log ✈ SWA2336 ✈ 20-Apr-2013 ✈ KROC - KTPA

Flight Track Log - Related Links

Times and Time Zones

All times are in EDT time to prevent confusion due to time zone crossing. See the SWA2336 flight status page for this flight to view local times or setup timezone preferences in your user account.

Time Position Orientation Groundspeed Altitude Reporting Facility
EDT Latitude Longitude Course Direction KTS MPH feet Rate Location/Type
07:15AM 43.1014 -77.6942 194° South 142 163 1,500  Level Cleveland Center
07:16AM 43.0519 -77.7108 194° South 198 228 3,800 2,280 Climbing Cleveland Center
07:16AM 43.0125 -77.7183 188° South 241 277 5,600 2,820 Climbing Cleveland Center
07:17AM 42.9464 -77.7383 192° South 246 283 8,500 2,580 Climbing Cleveland Center
07:18AM 42.8736 -77.7558 190° South 246 283 10,800 2,280 Climbing Cleveland Center
07:19AM 42.7936 -77.8019 203° Southwest 275 316 13,100 2,520 Climbing Cleveland Center
07:20AM 42.7072 -77.8481 201° Southwest 309 356 15,900 3,240 Climbing Cleveland Center
07:21AM 42.6186 -77.8997 203° Southwest 337 388 19,600 3,540 Climbing Cleveland Center
07:22AM 42.5467 -77.9394 202° Southwest 331 381 23,000 2,820 Climbing Cleveland Center
07:23AM 42.4664 -77.9850 203° Southwest 326 375 25,300 1,980 Climbing Cleveland Center
07:24AM 42.3800 -78.0336 203° Southwest 332 382 27,000 840 Climbing Cleveland Center
07:25AM 42.2933 -78.0792 201° Southwest 332 382 27,000  Level Cleveland Center
07:26AM 42.2069 -78.1275 203° Southwest 332 382 27,000 240 Level Cleveland Center
07:27AM 42.1203 -78.1756 202° Southwest 332 382 27,500 1,140 Climbing Cleveland Center
07:28AM 42.0214 -78.2269 201° Southwest 340 391 29,300 2,040 Climbing Cleveland Center
07:29AM 41.9347 -78.2747 202° Southwest 345 397 31,600 1,920 Climbing Cleveland Center
07:30AM 41.8461 -78.3225 202° Southwest 345 397 33,200 1,320 Climbing Cleveland Center
07:31AM 41.7614 -78.3700 203° Southwest 345 397 34,300 960 Climbing Cleveland Center
07:32AM 41.6728 -78.4147 201° Southwest 345 397 35,200 1,080 Climbing Cleveland Center
07:33AM 41.5819 -78.4650 202° Southwest 350 403 36,500 1,140 Climbing Cleveland Center
07:34AM 41.4911 -78.5125 201° Southwest 350 403 37,500 600 Climbing Cleveland Center
07:35AM 41.4003 -78.5625 202° Southwest 350 403 37,800 240 Climbing Cleveland Center
07:36AM 41.3072 -78.6122 202° Southwest 350 403 38,000 60 Climbing Cleveland Center
07:37AM 41.2122 -78.6619 201° Southwest 350 403 38,000  Level Cleveland Center
07:38AM 41.1192 -78.7144 203° Southwest 355 409 38,000  Level Cleveland Center
07:39AM 41.0261 -78.7611 201° Southwest 361 415 38,000  Level Cleveland Center
07:40AM 40.9311 -78.8106 201° Southwest 367 422 38,000  Level Cleveland Center
07:41AM 40.8586 -78.8481 201° Southwest 367 422 38,000  Level Cleveland Center
07:42AM 40.7533 -78.9056 202° Southwest 367 422 38,000  Level Cleveland Center
07:43AM 40.6642 -78.9517 201° Southwest 367 422 38,000  Level Cleveland Center
07:44AM 40.5608 -79.0033 201° Southwest 362 417 38,000  Level Cleveland Center
07:45AM 40.4697 -79.0519 202° Southwest 362 417 38,000  Level Cleveland Center
07:46AM 40.3786 -79.0978 201° Southwest 362 417 38,000  Level Cleveland Center
07:47AM 40.2894 -79.1433 201° Southwest 352 405 38,000  Level Cleveland Center
07:48AM 40.1983 -79.1914 202° Southwest 352 405 38,000  Level Cleveland Center
07:49AM 40.1072 -79.2367 201° Southwest 352 405 38,000  Level Cleveland Center
07:50AM 40.0306 -79.2789 203° Southwest 347 399 38,000  Level Cleveland Center
07:51AM 39.9394 -79.3267 202° Southwest 347 399 38,000  Level Cleveland Center
07:52AM 39.8503 -79.3725 202° Southwest 346 398 38,000  Level Washington Center
07:53AM 39.7594 -79.4164 200° South 346 398 38,000  Level Washington Center
07:54AM 39.6703 -79.4628 202° Southwest 346 398 38,000  Level Washington Center
07:55AM 39.5772 -79.5092 201° Southwest 351 404 38,000  Level Washington Center
07:56AM 39.4900 -79.5556 202° Southwest 351 404 38,000  Level Washington Center
07:57AM 39.3969 -79.5986 200° South 356 410 38,000  Level Washington Center
07:58AM 39.3036 -79.6472 202° Southwest 356 410 38,000  Level Washington Center
07:59AM 39.2103 -79.6928 201° Southwest 356 410 38,000  Level Washington Center
08:00AM 39.1192 -79.7414 202° Southwest 356 410 38,000  Level Washington Center
08:01AM 39.0256 -79.7894 202° Southwest 356 410 38,000  Level Washington Center
08:02AM 38.9344 -79.8350 201° Southwest 362 417 38,000  Level Washington Center
08:03AM 38.8411 -79.8828 202° Southwest 362 417 38,000  Level Washington Center
08:04AM 38.7497 -79.9253 200° South 362 417 38,000  Level Washington Center
08:05AM 38.6650 -79.9656 200° South 356 410 38,000  Level Washington Center
08:06AM 38.5736 -80.0108 201° Southwest 356 410 38,000  Level Washington Center
08:07AM 38.4822 -80.0556 201° Southwest 356 410 38,000  Level Washington Center
08:08AM 38.3931 -80.0981 200° South 356 410 38,000  Level Washington Center
08:09AM 38.2933 -80.1475 201° Southwest 356 410 38,000  Level Washington Center
08:10AM 38.2019 -80.1894 200° South 356 410 38,000  Level Washington Center
08:11AM 38.1125 -80.2342 201° Southwest 356 410 38,000  Level Washington Center
08:12AM 38.0297 -80.2739 201° Southwest 356 410 38,000  Level Washington Center
08:13AM 37.9403 -80.3183 201° Southwest 356 410 38,000  Level Washington Center
08:16AM 37.7311 -80.4161 200° South 357 411 38,000  Level Atlanta Center
08:17AM 37.6406 -80.4569 200° South 351 404 38,000  Level Atlanta Center
08:18AM 37.5500 -80.4978 200° South 346 398 38,000  Level Atlanta Center
08:19AM 37.4617 -80.5408 201° Southwest 346 398 38,000  Level Atlanta Center
08:20AM 37.3814 -80.5758 199° South 346 398 38,000  Level Atlanta Center
08:21AM 37.2908 -80.6189 201° Southwest 346 398 38,000  Level Atlanta Center
08:22AM 37.2003 -80.6594 200° South 346 398 38,000  Level Atlanta Center
08:23AM 37.1119 -80.7047 202° Southwest 346 398 38,000  Level Atlanta Center
08:24AM 37.0061 -80.7222 188° South 346 398 38,000  Level Atlanta Center
08:25AM 36.9064 -80.7342 185° South 353 406 38,000  Level Atlanta Center
08:26AM 36.8064 -80.7436 184° South 353 406 38,000  Level Atlanta Center
08:27AM 36.7192 -80.7525 185° South 358 412 38,000  Level Atlanta Center
08:28AM 36.6089 -80.7647 185° South 363 418 38,000  Level Atlanta Center
08:29AM 36.5092 -80.7739 184° South 368 423 38,000  Level Atlanta Center
08:30AM 36.4072 -80.7858 185° South 368 423 38,000  Level Atlanta Center
08:31AM 36.3056 -80.8003 187° South 368 423 38,000  Level Atlanta Center
08:32AM 36.2078 -80.8119 185° South 363 418 38,000  Level Atlanta Center
08:33AM 36.1100 -80.8208 184° South 363 418 38,000  Level Atlanta Center
08:34AM 36.0100 -80.8300 184° South 368 423 38,000  Level Atlanta Center
08:35AM 35.9103 -80.8417 185° South 368 423 38,000  Level Atlanta Center
08:36AM 35.8208 -80.8503 184° South 368 423 38,000  Level Atlanta Center
08:37AM 35.7231 -80.8592 184° South 368 423 38,000  Level Atlanta Center
08:38AM 35.6253 -80.8681 184° South 368 423 38,000  Level Atlanta Center
08:39AM 35.5253 -80.8822 187° South 368 423 38,000  Level Atlanta Center
08:40AM 35.4192 -80.8914 184° South 363 418 38,000  Level Atlanta Center
08:41AM 35.3214 -80.9028 185° South 363 418 38,000  Level Atlanta Center
08:42AM 35.2258 -80.9142 186° South 363 418 38,000  Level Atlanta Center
08:43AM 35.1278 -80.9228 184° South 363 418 38,000  Level Atlanta Center
08:44AM 35.0322 -80.9339 185° South 358 412 38,000  Level Atlanta Center
08:45AM 34.9344 -80.9453 185° South 352 405 38,000  Level Atlanta Center
08:46AM 34.8469 -80.9536 184° South 352 405 38,000  Level Atlanta Center
08:48AM 34.5919 -80.9833 185° South 361 415 38,000  Level Jacksonville Center
08:49AM 34.4897 -80.9906 183° South 372 428 38,000  Level Jacksonville Center
08:50AM 34.3878 -81.0031 186° South 372 428 38,000  Level Jacksonville Center
08:51AM 34.2897 -81.0125 185° South 360 414 38,000  Level Jacksonville Center
08:52AM 34.2022 -81.0219 185° South 349 402 38,000  Level Jacksonville Center
08:53AM 34.0919 -81.0319 184° South 354 407 38,000  Level Jacksonville Center
08:54AM 33.9939 -81.0392 183° South 359 413 38,000  Level Jacksonville Center
08:55AM 33.8939 -81.0511 186° South 364 419 38,000  Level Jacksonville Center
08:56AM 33.8025 -81.0831 196° South 364 419 38,000  Level Jacksonville Center
08:57AM 33.7217 -81.1247 203° Southwest 353 406 38,000  Level Jacksonville Center
08:58AM 33.6328 -81.1689 202° Southwest 353 406 38,000  Level Jacksonville Center
08:59AM 33.5414 -81.2156 203° Southwest 353 406 38,000  Level Jacksonville Center
09:00AM 33.4522 -81.2594 202° Southwest 353 406 38,000  Level Jacksonville Center
09:01AM 33.3611 -81.3033 202° Southwest 353 406 38,000  Level Jacksonville Center
09:02AM 33.2697 -81.3447 201° Southwest 353 406 38,000  Level Jacksonville Center
09:03AM 33.1806 -81.3911 204° Southwest 353 406 38,000  Level Jacksonville Center
09:04AM 33.0914 -81.4347 202° Southwest 353 406 38,000  Level Jacksonville Center
09:05AM 32.9978 -81.4783 201° Southwest 358 412 38,000  Level Jacksonville Center
09:06AM 32.9086 -81.5217 202° Southwest 358 412 38,000  Level Jacksonville Center
09:07AM 32.8172 -81.5653 202° Southwest 358 412 38,000  Level Jacksonville Center
09:08AM 32.7278 -81.6083 202° Southwest 358 412 38,000  Level Jacksonville Center
09:09AM 32.6386 -81.6542 203° Southwest 352 405 38,000  Level Jacksonville Center
09:10AM 32.5389 -81.7000 201° Southwest 352 405 38,000  Level Jacksonville Center
09:11AM 32.4472 -81.7453 203° Southwest 352 405 38,000  Level Jacksonville Center
09:12AM 32.3642 -81.7833 201° Southwest 357 411 38,000  Level Jacksonville Center
09:13AM 32.2622 -81.8311 202° Southwest 357 411 38,000  Level Jacksonville Center
09:14AM 32.1811 -81.8714 203° Southwest 357 411 38,000  Level Jacksonville Center
09:15AM 32.0792 -81.9192 202° Southwest 357 411 38,000  Level Jacksonville Center
09:16AM 31.9856 -81.9642 202° Southwest 357 411 38,000  Level Jacksonville Center
09:17AM 31.9025 -81.9944 197° South 357 411 38,000  Level Jacksonville Center
09:18AM 31.7878 -82.0128 188° South 369 425 38,000  Level Jacksonville Center
09:19AM 31.6856 -82.0308 189° South 369 425 38,000  Level Jacksonville Center
09:20AM 31.5833 -82.0464 187° South 369 425 38,000  Level Jacksonville Center
09:21AM 31.4831 -82.0642 189° South 369 425 38,000  Level Jacksonville Center
09:22AM 31.3789 -82.0797 187° South 375 432 38,000  Level Jacksonville Center
09:23AM 31.2808 -82.0953 188° South 370 426 38,000  Level Jacksonville Center
09:24AM 31.1767 -82.1106 187° South 370 426 38,000  Level Jacksonville Center
09:25AM 31.0744 -82.1286 189° South 370 426 38,000  Level Jacksonville Center
09:26AM 30.9722 -82.1439 187° South 370 426 38,000  Level Jacksonville Center
09:27AM 30.8761 -82.1592 188° South 370 426 38,000  Level Jacksonville Center
09:28AM 30.7719 -82.1744 187° South 370 426 38,000  Level Jacksonville Center
09:29AM 30.6675 -82.1922 188° South 375 432 38,000 -60 Level Jacksonville Center
09:30AM 30.5611 -82.2097 188° South 381 438 37,900  Descending Jacksonville Center
09:31AM 30.4589 -82.2203 185° South 381 438 38,000  Climbing Jacksonville Center
09:32AM 30.3483 -82.2356 187° South 391 450 38,000  Level Jacksonville Center
09:33AM 30.2400 -82.2556 189° South 391 450 38,000 -240 Level Jacksonville Center
09:34AM 30.1292 -82.2731 188° South 396 456 37,600 -1,440 Descending Jacksonville Center
09:35AM 30.0208 -82.2881 187° South 396 456 35,200 -2,340 Descending Jacksonville Center
09:36AM 29.9122 -82.3103 190° South 396 456 33,000 -2,220 Descending Jacksonville Center
09:37AM 29.7997 -82.3278 188° South 403 464 30,900 -2,100 Descending Jacksonville Center
09:38AM 29.6892 -82.3428 187° South 410 472 28,800 -2,040 Descending Jacksonville Center
09:39AM 29.5806 -82.3578 187° South 405 466 26,900 -1,500 Descending Jacksonville Center
09:40AM 29.4761 -82.3464 175° South 393 452 25,900 -900 Descending Jacksonville Center
09:41AM 29.3697 -82.3350 175° South 387 445 25,100 -1,200 Descending Jacksonville Center
09:42AM 29.2589 -82.3214 174° South 387 445 23,500 -1,920 Descending Jacksonville Center
09:43AM 29.1525 -82.3078 174° South 387 445 21,400 -2,040 Descending Jacksonville Center
09:44AM 29.0522 -82.2964 174° South 381 438 19,400 -1,920 Descending Jacksonville Center
09:45AM 28.9561 -82.2850 174° South 363 418 17,600 -1,980 Descending Jacksonville Center
09:46AM 28.8517 -82.2739 175° South 353 406 15,500 -2,100 Descending Jacksonville Center
09:47AM 28.7597 -82.2625 174° South 342 394 13,400 -1,260 Descending Jacksonville Center
09:48AM 28.6681 -82.2583 178° South 336 387 13,000 -360 Descending Jacksonville Center
09:49AM 28.5500 -82.2500 176° South 328 377 12,600 -840 Descending Tampa TRACON
09:50AM 28.4667 -82.2500 180° South 329 379 11,100 -900 Descending Tampa TRACON
09:51AM 28.3667 -82.2500 180° South 320 368 10,900 -720 Descending Tampa TRACON
09:52AM 28.3167 -82.3000 221° Southwest 268 308 9,700 -960 Descending Tampa TRACON
09:53AM 28.2500 -82.3500 213° Southwest 260 299 9,000 -600 Descending Tampa TRACON
09:54AM 28.2000 -82.4000 221° Southwest 246 283 8,600 -960 Descending Tampa TRACON
09:55AM 28.1333 -82.4167 192° South 254 292 7,100 -1,500 Descending Tampa TRACON
09:56AM 28.0667 -82.4167 180° South 255 293 5,600 -1,080 Descending Tampa TRACON
09:57AM 27.9833 -82.4167 180° South 251 289 5,000 -300 Descending Tampa TRACON
09:58AM 27.9167 -82.4167 180° South 254 292 5,000 -420 Level Tampa TRACON
09:59AM 27.8500 -82.4167 180° South 251 289 4,200 -960 Descending Tampa TRACON
10:00AM 27.8000 -82.4500 211° Southwest 223 257 3,200 -840 Descending Tampa TRACON
10:01AM 27.7833 -82.5167 254° West 182 209 2,600 -300 Descending Tampa TRACON
10:02AM 27.8167 -82.5333 336° Northwest 166 191 2,700  Climbing Tampa TRACON
10:03AM 27.8500 -82.5500 336° Northwest 146 168 2,600 -600 Descending Tampa TRACON
10:04AM 27.9000 -82.5500 360° North 133 153 1,500 -960 Descending Tampa TRACON
10:05AM 27.9333 -82.5500 360° North 124 143 700 -840 Descending Tampa TRACON
10:07AM 27.9667 -82.5167 350° North  Level FlightAware Approximate
10:14AM 27.9755 -82.5332 350° North  Level Estimated
10:15AM 27.9755 -82.5332 350° North  Level Estimated
10:16AM 27.9755 -82.5332 350° North  Level Estimated